Time,TemperatureF,DewpointF,PressureIn,WindDirection,WindDirectionDegrees,WindSpeedMPH,WindSpeedGustMPH,Humidity,HourlyPrecipIn,Conditions,Clouds,dailyrainin,SoftwareType,DateUTC
2013-04-09 00:00:00,51.8,47.1,29.80,ESE,107,4.0,5.0,84,0.00,,---,0.00,VWS V14.00,2013-04-09 07:00:00,
2013-04-09 00:02:00,51.7,47.0,29.80,ESE,115,3.0,4.0,84,0.00,,,0.00,weatherlink.com 1.10,2013-04-09 07:02:00,
2013-04-09 00:05:00,51.8,47.1,29.80,ESE,107,4.0,5.0,84,0.00,,---,0.00,VWS V14.00,2013-04-09 07:05:00,
2013-04-09 00:19:00,52.2,47.0,29.81,ESE,111,2.0,3.0,83,0.00,,,0.00,weatherlink.com 1.10,2013-04-09 07:19:00,
2013-04-09 00:30:00,51.7,47.0,29.81,SE,125,3.0,7.0,84,0.00,,---,0.00,VWS V14.00,2013-04-09 07:30:00,
2013-04-09 00:35:00,51.7,47.0,29.81,SE,125,3.0,7.0,84,0.00,,---,0.00,VWS V14.00,2013-04-09 07:35:00,
2013-04-09 00:54:00,50.5,46.0,29.82,SE,127,0.0,3.0,85,0.00,,,0.00,weatherlink.com 1.10,2013-04-09 07:54:00,
2013-04-09 01:00:00,50.2,46.2,29.82,ESE,123,0.0,5.0,86,0.00,,---,0.00,VWS V14.00,2013-04-09 08:00:00,
2013-04-09 01:05:00,50.2,46.2,29.82,ESE,123,0.0,5.0,86,0.00,,---,0.00,VWS V14.00,2013-04-09 08:05:00,
2013-04-09 01:28:00,50.3,46.0,29.82,East,98,1.0,3.0,86,0.00,,,0.00,weatherlink.com 1.10,2013-04-09 08:28:00,
2013-04-09 01:30:00,50.2,46.2,29.82,ESE,111,4.0,6.0,86,0.00,,---,0.00,VWS V14.00,2013-04-09 08:30:00,
2013-04-09 01:35:00,50.2,46.2,29.82,ESE,111,4.0,6.0,86,0.00,,---,0.00,VWS V14.00,2013-04-09 08:35:00,
2013-04-09 01:45:00,49.4,45.0,29.82,ESE,119,0.0,4.0,86,0.00,,,0.00,weatherlink.com 1.10,2013-04-09 08:45:00,
2013-04-09 02:00:00,49.4,45.7,29.82,NE,52,0.0,4.0,87,0.00,,---,0.00,VWS V14.00,2013-04-09 09:00:00,
2013-04-09 02:03:00,49.3,46.0,29.82,NE,52,1.0,2.0,87,0.00,,,0.00,weatherlink.com 1.10,2013-04-09 09:03:00,
2013-04-09 02:20:00,48.7,45.0,29.82,ESE,114,5.0,5.0,87,0.00,,,0.00,weatherlink.com 1.10,2013-04-09 09:20:00,
2013-04-09 02:30:00,47.9,44.2,29.82,ESE,104,1.0,7.0,87,0.00,,---,0.00,VWS V14.00,2013-04-09 09:30:00,
2013-04-09 02:35:00,47.9,44.2,29.82,ESE,104,1.0,7.0,87,0.00,,---,0.00,VWS V14.00,2013-04-09 09:35:00,
2013-04-09 02:37:00,47.9,44.0,29.82,ESE,104,1.0,3.0,87,0.00,,,0.00,weatherlink.com 1.10,2013-04-09 09:37:00,
2013-04-09 02:55:00,47.5,44.0,29.81,SE,127,1.0,4.0,87,0.00,,,0.00,weatherlink.com 1.10,2013-04-09 09:55:00,
2013-04-09 03:00:00,47.1,43.4,29.82,East,100,2.0,9.0,87,0.00,,---,0.00,VWS V14.00,2013-04-09 10:00:00,
2013-04-09 03:05:00,47.1,43.4,29.82,East,100,2.0,9.0,87,0.00,,---,0.00,VWS V14.00,2013-04-09 10:05:00,
2013-04-09 03:12:00,46.7,43.0,29.82,ESE,115,0.0,9.0,88,0.00,,,0.00,weatherlink.com 1.10,2013-04-09 10:12:00,
2013-04-09 03:29:00,47.4,43.0,29.82,ESE,119,2.0,5.0,86,0.00,,,0.00,weatherlink.com 1.10,2013-04-09 10:29:00,
2013-04-09 03:30:00,47.0,43.3,29.83,ESE,106,2.0,5.0,87,0.00,,---,0.00,VWS V14.00,2013-04-09 10:30:00,
2013-04-09 03:35:00,47.0,43.3,29.83,ESE,106,2.0,5.0,87,0.00,,---,0.00,VWS V14.00,2013-04-09 10:35:00,
2013-04-09 03:46:00,46.3,43.0,29.83,East,101,3.0,4.0,87,0.00,,,0.00,weatherlink.com 1.10,2013-04-09 10:46:00,
2013-04-09 04:00:00,46.4,43.3,29.82,SE,126,1.0,5.0,89,0.00,,---,0.00,VWS V14.00,2013-04-09 11:00:00,
2013-04-09 04:04:00,46.3,43.0,29.83,ESE,114,1.0,2.0,89,0.00,,,0.00,weatherlink.com 1.10,2013-04-09 11:04:00,
2013-04-09 04:05:00,46.4,43.3,29.82,SE,126,1.0,5.0,89,0.00,,---,0.00,VWS V14.00,2013-04-09 11:05:00,
2013-04-09 04:21:00,45.9,43.0,29.83,ESE,123,0.0,2.0,89,0.00,,,0.00,weatherlink.com 1.10,2013-04-09 11:21:00,
2013-04-09 04:30:00,45.5,42.2,29.83,ESE,109,2.0,7.0,88,0.00,,---,0.00,VWS V14.00,2013-04-09 11:30:00,
2013-04-09 04:35:00,45.5,42.2,29.83,ESE,109,2.0,7.0,88,0.00,,---,0.00,VWS V14.00,2013-04-09 11:35:00,
2013-04-09 04:55:00,45.5,42.0,29.83,ESE,110,3.0,5.0,87,0.00,,,0.00,weatherlink.com 1.10,2013-04-09 11:55:00,
2013-04-09 05:00:00,45.1,41.5,29.83,SE,132,2.0,6.0,87,0.00,,---,0.00,VWS V14.00,2013-04-09 12:00:00,
2013-04-09 05:05:00,45.1,41.5,29.83,SE,132,2.0,6.0,87,0.00,,---,0.00,VWS V14.00,2013-04-09 12:05:00,
2013-04-09 05:13:00,44.7,41.0,29.83,SE,133,2.0,4.0,88,0.00,,,0.00,weatherlink.com 1.10,2013-04-09 12:13:00,
2013-04-09 05:30:00,45.9,42.0,29.84,East,84,0.0,3.0,87,0.00,,,0.00,weatherlink.com 1.10,2013-04-09 12:30:00,
2013-04-09 05:35:00,45.5,41.9,29.84,SE,126,3.0,4.0,87,0.00,,---,0.00,VWS V14.00,2013-04-09 12:35:00,
2013-04-09 05:47:00,44.7,42.0,29.84,SE,128,0.0,4.0,89,0.00,,,0.00,weatherlink.com 1.10,2013-04-09 12:47:00,
2013-04-09 06:00:00,45.2,41.9,29.85,ESE,117,0.0,4.0,88,0.00,,---,0.00,VWS V14.00,2013-04-09 13:00:00,
2013-04-09 06:05:00,45.1,42.0,29.85,ESE,118,0.0,2.0,88,0.00,,,0.00,weatherlink.com 1.10,2013-04-09 13:05:00,
2013-04-09 06:22:00,44.8,42.0,29.86,ESE,111,0.0,4.0,88,0.00,,,0.00,weatherlink.com 1.10,2013-04-09 13:22:00,
2013-04-09 06:30:00,44.7,41.4,29.86,ESE,111,3.0,4.0,88,0.00,,---,0.00,VWS V14.00,2013-04-09 13:30:00,
2013-04-09 06:35:00,44.7,41.4,29.86,ESE,111,3.0,4.0,88,0.00,,---,0.00,VWS V14.00,2013-04-09 13:35:00,
2013-04-09 06:56:00,44.9,42.0,29.87,ESE,113,0.0,4.0,89,0.00,,,0.00,weatherlink.com 1.10,2013-04-09 13:56:00,
2013-04-09 07:00:00,45.9,42.3,29.87,ESE,123,1.0,7.0,87,0.00,,---,0.00,VWS V14.00,2013-04-09 14:00:00,
2013-04-09 07:05:00,45.9,42.3,29.87,ESE,123,1.0,7.0,87,0.00,,---,0.00,VWS V14.00,2013-04-09 14:05:00,
2013-04-09 07:14:00,46.2,42.0,29.87,SE,126,1.0,4.0,86,0.00,,,0.00,weatherlink.com 1.10,2013-04-09 14:14:00,
2013-04-09 07:30:00,47.4,43.0,29.88,East,90,3.0,4.0,85,0.00,,,0.00,weatherlink.com 1.10,2013-04-09 14:30:00,
2013-04-09 07:35:00,48.1,43.8,29.88,SE,133,0.0,5.0,85,0.00,,---,0.00,VWS V14.00,2013-04-09 14:35:00,
2013-04-09 07:47:00,50.4,45.0,29.88,ESE,114,3.0,5.0,81,0.00,,,0.00,weatherlink.com 1.10,2013-04-09 14:47:00,
2013-04-09 08:00:00,51.0,45.1,29.89,ESE,111,3.0,8.0,80,0.00,,---,0.00,VWS V14.00,2013-04-09 15:00:00,
2013-04-09 08:05:00,50.9,45.0,29.89,ESE,111,1.0,2.0,80,0.00,,,0.00,weatherlink.com 1.10,2013-04-09 15:05:00,
2013-04-09 08:22:00,54.2,46.0,29.89,ENE,78,2.0,5.0,75,0.00,,,0.00,weatherlink.com 1.10,2013-04-09 15:22:00,
2013-04-09 08:30:00,55.1,45.9,29.90,ESE,102,4.0,6.0,71,0.00,,---,0.00,VWS V14.00,2013-04-09 15:30:00,
2013-04-09 08:35:00,55.1,45.9,29.90,ESE,102,4.0,6.0,71,0.00,,---,0.00,VWS V14.00,2013-04-09 15:35:00,
2013-04-09 08:39:00,55.4,47.0,29.90,SSE,159,3.0,5.0,73,0.00,,,0.00,weatherlink.com 1.10,2013-04-09 15:39:00,
2013-04-09 08:57:00,55.8,49.0,29.91,SSE,156,6.0,8.0,78,0.00,,,0.00,weatherlink.com 1.10,2013-04-09 15:57:00,
2013-04-09 09:00:00,56.4,49.3,29.91,SSE,164,5.0,9.0,77,0.00,,---,0.00,VWS V14.00,2013-04-09 16:00:00,
2013-04-09 09:05:00,56.4,49.3,29.91,SSE,164,5.0,9.0,77,0.00,,---,0.00,VWS V14.00,2013-04-09 16:05:00,
2013-04-09 09:14:00,56.0,49.0,29.91,SE,138,5.0,10.0,77,0.00,,,0.00,weatherlink.com 1.10,2013-04-09 16:14:00,
2013-04-09 09:30:00,56.8,49.7,29.91,South,170,0.0,10.0,77,0.00,,---,0.00,VWS V14.00,2013-04-09 16:30:00,
2013-04-09 09:31:00,56.9,50.0,29.92,SSE,148,9.0,10.0,77,0.00,,,0.00,weatherlink.com 1.10,2013-04-09 16:31:00,
2013-04-09 09:35:00,56.8,49.7,29.91,South,170,0.0,10.0,77,0.00,,---,0.00,VWS V14.00,2013-04-09 16:35:00,
2013-04-09 09:49:00,57.9,50.0,29.91,SSW,211,3.0,8.0,75,0.00,,,0.00,weatherlink.com 1.10,2013-04-09 16:49:00,
2013-04-09 10:00:00,58.2,50.0,29.92,SSW,202,5.0,9.0,74,0.00,,---,0.00,VWS V14.00,2013-04-09 17:00:00,
2013-04-09 10:05:00,58.2,50.0,29.92,SSW,202,5.0,9.0,74,0.00,,---,0.00,VWS V14.00,2013-04-09 17:05:00,
2013-04-09 10:06:00,58.2,50.0,29.92,SSE,162,5.0,10.0,74,0.00,,,0.00,weatherlink.com 1.10,2013-04-09 17:06:00,
2013-04-09 10:23:00,58.7,50.0,29.92,SSE,166,5.0,8.0,73,0.00,,,0.00,weatherlink.com 1.10,2013-04-09 17:23:00,
2013-04-09 10:30:00,58.5,50.2,29.92,SSW,212,5.0,9.0,74,0.00,,---,0.00,VWS V14.00,2013-04-09 17:30:00,
2013-04-09 10:35:00,58.5,50.2,29.92,SSW,212,5.0,9.0,74,0.00,,---,0.00,VWS V14.00,2013-04-09 17:35:00,
2013-04-09 10:41:00,58.5,50.0,29.92,SSW,207,6.0,8.0,73,0.00,,,0.00,weatherlink.com 1.10,2013-04-09 17:41:00,
2013-04-09 10:59:00,58.2,51.0,29.92,South,190,9.0,11.0,76,0.00,,,0.00,weatherlink.com 1.10,2013-04-09 17:59:00,
2013-04-09 11:00:00,57.9,50.0,29.91,SW,224,3.0,12.0,75,0.00,,---,0.00,VWS V14.00,2013-04-09 18:00:00,
2013-04-09 11:05:00,57.9,50.0,29.91,SW,224,3.0,12.0,75,0.00,,---,0.00,VWS V14.00,2013-04-09 18:05:00,
2013-04-09 11:15:00,58.1,50.0,29.91,SW,223,2.0,11.0,75,0.00,,,0.00,weatherlink.com 1.10,2013-04-09 18:15:00,
2013-04-09 11:30:00,58.6,50.0,29.92,SW,230,9.0,11.0,73,0.00,,---,0.00,VWS V14.00,2013-04-09 18:30:00,
2013-04-09 11:33:00,58.6,50.0,29.92,SSW,209,7.0,10.0,72,0.00,,,0.00,weatherlink.com 1.10,2013-04-09 18:33:00,
2013-04-09 11:35:00,58.6,50.0,29.92,SW,230,9.0,11.0,73,0.00,,---,0.00,VWS V14.00,2013-04-09 18:35:00,
2013-04-09 11:50:00,59.5,51.0,29.91,South,191,10.0,10.0,74,0.00,,,0.00,weatherlink.com 1.10,2013-04-09 18:50:00,
2013-04-09 12:00:00,60.5,51.4,29.91,SSW,205,10.0,15.0,72,0.00,,---,0.00,VWS V14.00,2013-04-09 19:00:00,
2013-04-09 12:05:00,60.5,51.4,29.91,SSW,205,10.0,15.0,72,0.00,,---,0.00,VWS V14.00,2013-04-09 19:05:00,
2013-04-09 12:07:00,59.9,52.0,29.91,SSW,209,8.0,15.0,74,0.00,,,0.00,weatherlink.com 1.10,2013-04-09 19:07:00,
2013-04-09 12:25:00,60.4,48.0,29.91,West,267,6.0,9.0,64,0.00,,,0.00,weatherlink.com 1.10,2013-04-09 19:25:00,
2013-04-09 12:30:00,60.6,51.9,29.91,West,271,5.0,10.0,73,0.00,,---,0.00,VWS V14.00,2013-04-09 19:30:00,
2013-04-09 12:35:00,60.6,51.9,29.91,West,271,5.0,10.0,73,0.00,,---,0.00,VWS V14.00,2013-04-09 19:35:00,
2013-04-09 12:43:00,60.4,47.0,29.91,WSW,258,8.0,11.0,62,0.00,,,0.00,weatherlink.com 1.10,2013-04-09 19:43:00,
2013-04-09 13:00:00,60.2,48.0,29.91,WNW,303,9.0,15.0,65,0.00,,,0.00,weatherlink.com 1.10,2013-04-09 20:00:00,
2013-04-09 13:05:00,61.1,46.7,29.90,West,271,11.0,15.0,59,0.00,,---,0.00,VWS V14.00,2013-04-09 20:05:00,
2013-04-09 13:17:00,62.1,49.0,29.90,WNW,283,13.0,13.0,62,0.00,,,0.00,weatherlink.com 1.10,2013-04-09 20:17:00,
2013-04-09 13:30:00,62.5,43.6,29.89,SW,231,4.0,15.0,50,0.00,,---,0.00,VWS V14.00,2013-04-09 20:30:00,
2013-04-09 13:34:00,62.3,43.0,29.89,WNW,289,10.0,15.0,50,0.00,,,0.00,weatherlink.com 1.10,2013-04-09 20:34:00,
2013-04-09 13:35:00,62.5,43.6,29.89,SW,231,4.0,15.0,50,0.00,,---,0.00,VWS V14.00,2013-04-09 20:35:00,
2013-04-09 13:52:00,62.7,45.0,29.89,West,261,11.0,14.0,52,0.00,,,0.00,weatherlink.com 1.10,2013-04-09 20:52:00,
2013-04-09 14:00:00,61.8,46.0,29.89,NW,319,8.0,16.0,56,0.00,,---,0.00,VWS V14.00,2013-04-09 21:00:00,
2013-04-09 14:05:00,61.8,46.0,29.89,NW,319,8.0,16.0,56,0.00,,---,0.00,VWS V14.00,2013-04-09 21:05:00,
2013-04-09 14:10:00,61.6,46.0,29.89,SW,229,9.0,17.0,58,0.00,,,0.00,weatherlink.com 1.10,2013-04-09 21:10:00,
2013-04-09 14:26:00,61.3,46.0,29.88,SW,236,11.0,18.0,57,0.00,,,0.00,weatherlink.com 1.10,2013-04-09 21:26:00,
2013-04-09 14:30:00,60.8,47.3,29.88,WNW,289,12.0,18.0,61,0.00,,---,0.00,VWS V14.00,2013-04-09 21:30:00,
2013-04-09 14:35:00,60.8,47.3,29.88,WNW,289,12.0,18.0,61,0.00,,---,0.00,VWS V14.00,2013-04-09 21:35:00,
2013-04-09 14:44:00,61.6,46.0,29.88,West,263,16.0,20.0,56,0.00,,,0.00,weatherlink.com 1.10,2013-04-09 21:44:00,
2013-04-09 15:00:00,62.1,45.3,29.88,WNW,283,12.0,20.0,54,0.00,,---,0.00,VWS V14.00,2013-04-09 22:00:00,
2013-04-09 15:02:00,61.8,46.0,29.88,WNW,286,15.0,20.0,56,0.00,,,0.00,weatherlink.com 1.10,2013-04-09 22:02:00,
2013-04-09 15:05:00,62.1,45.3,29.88,WNW,283,12.0,20.0,54,0.00,,---,0.00,VWS V14.00,2013-04-09 22:05:00,
2013-04-09 15:19:00,62.3,44.0,29.88,West,265,13.0,18.0,52,0.00,,,0.00,weatherlink.com 1.10,2013-04-09 22:19:00,
2013-04-09 15:30:00,63.0,41.9,29.88,West,280,18.0,19.0,46,0.00,,---,0.00,VWS V14.00,2013-04-09 22:30:00,
2013-04-09 15:35:00,63.0,41.9,29.88,West,280,18.0,19.0,46,0.00,,---,0.00,VWS V14.00,2013-04-09 22:35:00,
2013-04-09 15:53:00,62.8,43.0,29.88,WNW,296,9.0,23.0,48,0.00,,,0.00,weatherlink.com 1.10,2013-04-09 22:53:00,
2013-04-09 16:00:00,63.5,38.8,29.88,WNW,287,11.0,24.0,40,0.00,,---,0.00,VWS V14.00,2013-04-09 23:00:00,
2013-04-09 16:05:00,63.5,38.8,29.88,WNW,287,11.0,24.0,40,0.00,,---,0.00,VWS V14.00,2013-04-09 23:05:00,
2013-04-09 16:11:00,63.4,39.0,29.88,NW,323,9.0,24.0,41,0.00,,,0.00,weatherlink.com 1.10,2013-04-09 23:11:00,
2013-04-09 16:27:00,64.3,34.0,29.88,WNW,298,15.0,22.0,33,0.00,,,0.00,weatherlink.com 1.10,2013-04-09 23:27:00,
2013-04-09 16:30:00,64.5,36.3,29.88,WNW,292,9.0,22.0,35,0.00,,---,0.00,VWS V14.00,2013-04-09 23:30:00,
2013-04-09 16:35:00,64.5,36.3,29.88,WNW,292,9.0,22.0,35,0.00,,---,0.00,VWS V14.00,2013-04-09 23:35:00,
2013-04-09 16:45:00,64.1,36.0,29.88,NW,310,11.0,22.0,36,0.00,,,0.00,weatherlink.com 1.10,2013-04-09 23:45:00,
2013-04-09 17:00:00,63.9,36.5,29.88,WNW,301,11.0,20.0,36,0.00,,---,0.00,VWS V14.00,2013-04-10 00:00:00,
2013-04-09 17:03:00,64.1,36.0,29.88,WNW,298,10.0,19.0,35,0.00,,,0.00,weatherlink.com 1.10,2013-04-10 00:03:00,
2013-04-09 17:05:00,63.9,36.5,29.88,WNW,301,11.0,20.0,36,0.00,,---,0.00,VWS V14.00,2013-04-10 00:05:00,
2013-04-09 17:19:00,62.9,37.0,29.88,WNW,303,13.0,21.0,38,0.00,,,0.00,weatherlink.com 1.10,2013-04-10 00:19:00,
2013-04-09 17:30:00,62.9,36.2,29.89,NNW,332,14.0,23.0,37,0.00,,---,0.00,VWS V14.00,2013-04-10 00:30:00,
2013-04-09 17:35:00,62.9,36.2,29.89,NNW,332,14.0,23.0,37,0.00,,---,0.00,VWS V14.00,2013-04-10 00:35:00,
2013-04-09 17:37:00,63.0,37.0,29.89,WNW,296,11.0,23.0,38,0.00,,,0.00,weatherlink.com 1.10,2013-04-10 00:37:00,
2013-04-09 17:55:00,62.5,39.0,29.89,NW,316,7.0,17.0,42,0.00,,,0.00,weatherlink.com 1.10,2013-04-10 00:55:00,
2013-04-09 18:00:00,61.7,40.7,29.89,WNW,296,12.0,20.0,46,0.00,,---,0.00,VWS V14.00,2013-04-10 01:00:00,
2013-04-09 18:05:00,61.7,40.7,29.89,WNW,296,12.0,20.0,46,0.00,,---,0.00,VWS V14.00,2013-04-10 01:05:00,
2013-04-09 18:11:00,61.2,41.0,29.89,WNW,282,11.0,19.0,48,0.00,,,0.00,weatherlink.com 1.10,2013-04-10 01:11:00,
2013-04-09 18:29:00,61.2,42.0,29.89,West,275,4.0,20.0,50,0.00,,,0.00,weatherlink.com 1.10,2013-04-10 01:29:00,
2013-04-09 18:30:00,61.3,42.5,29.89,WNW,289,11.0,20.0,50,0.00,,---,0.00,VWS V14.00,2013-04-10 01:30:00,
2013-04-09 18:35:00,61.3,42.5,29.89,WNW,289,11.0,20.0,50,0.00,,---,0.00,VWS V14.00,2013-04-10 01:35:00,
2013-04-09 18:47:00,60.8,43.0,29.89,NW,324,10.0,18.0,52,0.00,,,0.00,weatherlink.com 1.10,2013-04-10 01:47:00,
2013-04-09 19:00:00,59.2,45.8,29.91,WNW,303,7.0,18.0,61,0.00,,---,0.00,VWS V14.00,2013-04-10 02:00:00,
2013-04-09 19:04:00,59.2,46.0,29.91,NW,306,11.0,15.0,61,0.00,,,0.00,weatherlink.com 1.10,2013-04-10 02:04:00,
2013-04-09 19:05:00,59.2,45.8,29.91,WNW,303,7.0,18.0,61,0.00,,---,0.00,VWS V14.00,2013-04-10 02:05:00,
2013-04-09 19:22:00,58.7,46.0,29.91,WNW,296,12.0,16.0,63,0.00,,,0.00,weatherlink.com 1.10,2013-04-10 02:22:00,
2013-04-09 19:30:00,58.8,44.5,29.91,NW,312,5.0,16.0,59,0.00,,---,0.00,VWS V14.00,2013-04-10 02:30:00,
2013-04-09 19:35:00,58.8,44.5,29.91,NW,312,5.0,16.0,59,0.00,,---,0.00,VWS V14.00,2013-04-10 02:35:00,
2013-04-09 20:00:00,59.0,43.3,29.92,NNW,331,5.0,9.0,56,0.00,,---,0.00,VWS V14.00,2013-04-10 03:00:00,
2013-04-09 20:05:00,59.0,43.3,29.92,NNW,331,5.0,9.0,56,0.00,,---,0.00,VWS V14.00,2013-04-10 03:05:00,
2013-04-09 20:13:00,58.9,43.0,29.92,NW,317,4.0,8.0,56,0.00,,,0.00,weatherlink.com 1.10,2013-04-10 03:13:00,
2013-04-09 20:30:00,58.4,45.0,29.93,West,277,3.0,8.0,61,0.00,,---,0.00,VWS V14.00,2013-04-10 03:30:00,
2013-04-09 20:35:00,58.4,45.0,29.93,West,277,3.0,8.0,61,0.00,,---,0.00,VWS V14.00,2013-04-10 03:35:00,
2013-04-09 20:47:00,57.8,46.0,29.93,WNW,300,4.0,4.0,65,0.00,,,0.00,weatherlink.com 1.10,2013-04-10 03:47:00,
2013-04-09 21:00:00,57.5,46.2,29.94,WNW,287,3.0,10.0,66,0.00,,---,0.00,VWS V14.00,2013-04-10 04:00:00,
2013-04-09 21:05:00,57.5,46.0,29.94,WNW,293,4.0,10.0,66,0.00,,,0.00,weatherlink.com 1.10,2013-04-10 04:05:00,
2013-04-09 21:22:00,57.2,46.0,29.95,NW,321,2.0,3.0,66,0.00,,,0.00,weatherlink.com 1.10,2013-04-10 04:22:00,
2013-04-09 21:30:00,57.1,45.5,29.95,North,355,0.0,9.0,65,0.00,,---,0.00,VWS V14.00,2013-04-10 04:30:00,
2013-04-09 21:35:00,57.1,45.5,29.95,North,355,0.0,9.0,65,0.00,,---,0.00,VWS V14.00,2013-04-10 04:35:00,
2013-04-09 21:56:00,55.9,42.0,29.96,SSE,149,3.0,4.0,61,0.00,,,0.00,weatherlink.com 1.10,2013-04-10 04:56:00,
2013-04-09 22:00:00,55.4,41.3,29.97,ESE,110,0.0,4.0,59,0.00,,---,0.00,VWS V14.00,2013-04-10 05:00:00,
2013-04-09 22:05:00,55.4,41.3,29.97,ESE,110,0.0,4.0,59,0.00,,---,0.00,VWS V14.00,2013-04-10 05:05:00,
2013-04-09 22:14:00,55.2,42.0,29.97,SE,131,2.0,2.0,61,0.00,,,0.00,weatherlink.com 1.10,2013-04-10 05:14:00,
2013-04-09 22:30:00,55.1,39.7,29.98,SE,144,1.0,2.0,56,0.00,,---,0.00,VWS V14.00,2013-04-10 05:30:00,
2013-04-09 22:35:00,55.1,39.7,29.98,SE,144,1.0,2.0,56,0.00,,---,0.00,VWS V14.00,2013-04-10 05:35:00,
2013-04-09 22:48:00,55.0,39.0,29.98,SE,138,1.0,2.0,55,0.00,,,0.00,weatherlink.com 1.10,2013-04-10 05:48:00,
2013-04-09 23:00:00,54.3,40.3,29.99,SE,127,0.0,3.0,59,0.00,,---,0.00,VWS V14.00,2013-04-10 06:00:00,
2013-04-09 23:05:00,54.3,40.3,29.99,SE,127,0.0,3.0,59,0.00,,---,0.00,VWS V14.00,2013-04-10 06:05:00,
2013-04-09 23:23:00,54.5,46.0,29.98,SSE,151,1.0,2.0,72,0.00,,,0.00,weatherlink.com 1.10,2013-04-10 06:23:00,
2013-04-09 23:30:00,53.4,41.9,29.99,East,101,0.0,3.0,65,0.00,,---,0.00,VWS V14.00,2013-04-10 06:30:00,
2013-04-09 23:35:00,53.4,41.9,29.99,East,101,0.0,3.0,65,0.00,,---,0.00,VWS V14.00,2013-04-10 06:35:00,
2013-04-09 23:40:00,53.2,42.0,29.99,East,101,2.0,2.0,66,0.00,,,0.00,weatherlink.com 1.10,2013-04-10 06:40:00,
2013-04-09 23:57:00,52.2,41.0,30.00,ESE,123,2.0,5.0,67,0.00,,,0.00,weatherlink.com 1.10,2013-04-10 06:57:00,